createdAt,value
2022-08-21T00:01:39.056Z,60.92
2022-08-21T00:04:07.522Z,60.97
2022-08-21T00:06:34.826Z,61.95
2022-08-21T00:09:06.272Z,61.43
2022-08-21T00:11:36.097Z,61.75
2022-08-21T00:14:04.690Z,62.93
2022-08-21T00:16:31.877Z,61.47
2022-08-21T00:18:59.307Z,61.75
2022-08-21T00:21:26.469Z,61.69
2022-08-21T00:23:53.775Z,61.65
2022-08-21T00:26:21.219Z,61.21
2022-08-21T00:28:49.935Z,61.75
2022-08-21T00:31:17.751Z,61.68
2022-08-21T00:33:45.375Z,60.81
2022-08-21T00:36:13.094Z,60.32
2022-08-21T00:38:40.381Z,61.83
2022-08-21T00:41:32.248Z,60.96
2022-08-21T00:43:56.058Z,61.17
2022-08-21T00:46:28.214Z,60.77
2022-08-21T00:48:58.690Z,61.26
2022-08-21T00:51:28.744Z,61.58
2022-08-21T00:53:57.563Z,62.01
2022-08-21T00:56:26.547Z,61.96
2022-08-21T00:58:54.996Z,60.79
2022-08-21T01:01:22.455Z,61.56
2022-08-21T01:03:50.418Z,62.57
2022-08-21T01:06:17.718Z,62.14
2022-08-21T01:08:46.981Z,62.49
2022-08-21T01:11:15.556Z,61.85
2022-08-21T01:13:46.844Z,62.03
2022-08-21T01:16:15.165Z,61.69
2022-08-21T01:18:42.665Z,60.87
2022-08-21T01:21:11.593Z,61.10
2022-08-21T01:23:40.996Z,61.92
2022-08-21T01:26:08.743Z,62.46
2022-08-21T01:28:38.347Z,61.86
2022-08-21T01:31:06.463Z,62.36
2022-08-21T01:33:36.082Z,62.06
2022-08-21T01:36:03.416Z,62.11
2022-08-21T01:38:30.612Z,62.49
2022-08-21T01:40:58.977Z,61.69
2022-08-21T01:43:32.432Z,61.91
2022-08-21T01:46:07.341Z,62.63
2022-08-21T01:48:34.741Z,63.31
2022-08-21T01:51:01.935Z,64.36
2022-08-21T01:53:33.609Z,62.59
2022-08-21T01:56:01.510Z,62.55
2022-08-21T01:58:28.738Z,66.24
2022-08-21T02:00:56.258Z,64.51
2022-08-21T02:03:35.251Z,63.77
2022-08-21T02:06:06.248Z,63.38
2022-08-21T02:08:33.684Z,64.49
2022-08-21T02:11:01.220Z,63.63
2022-08-21T02:13:28.400Z,63.84
2022-08-21T02:15:55.828Z,62.67
2022-08-21T02:18:23.349Z,63.12
2022-08-21T02:20:56.126Z,63.27
2022-08-21T02:23:27.322Z,63.52
2022-08-21T02:25:55.730Z,63.68
2022-08-21T02:28:23.006Z,63.97
2022-08-21T02:30:50.849Z,62.87
2022-08-21T02:33:19.482Z,62.93
2022-08-21T02:35:48.722Z,62.39
2022-08-21T02:38:18.837Z,62.69
2022-08-21T02:40:48.040Z,63.49
2022-08-21T02:43:16.438Z,63.29
2022-08-21T02:45:43.795Z,63.56
2022-08-21T02:48:12.326Z,63.93
2022-08-21T02:50:44.718Z,63.07
2022-08-21T02:53:14.260Z,62.98
2022-08-21T02:55:41.703Z,63.28
2022-08-21T02:58:09.026Z,63.81
2022-08-21T03:00:36.762Z,64.02
2022-08-21T03:03:04.798Z,64.83
2022-08-21T03:05:32.658Z,64.70
2022-08-21T03:08:00.592Z,64.33
2022-08-21T03:10:29.191Z,64.28
2022-08-21T03:12:56.464Z,65.48
2022-08-21T03:15:24.806Z,65.19
2022-08-21T03:17:52.354Z,65.01
2022-08-21T03:20:20.392Z,64.18
2022-08-21T03:22:48.593Z,64.16
2022-08-21T03:25:23.428Z,64.69
2022-08-21T03:28:08.091Z,63.46
2022-08-21T03:30:35.543Z,63.24
2022-08-21T03:33:02.736Z,64.61
2022-08-21T03:35:30.012Z,64.48
2022-08-21T03:37:57.452Z,63.50
2022-08-21T03:40:25.398Z,63.40
2022-08-21T03:42:52.614Z,63.25
2022-08-21T03:45:20.484Z,64.02
2022-08-21T03:47:53.989Z,62.54
2022-08-21T03:50:21.491Z,63.80
2022-08-21T03:52:48.963Z,63.19
2022-08-21T03:55:16.276Z,64.09
2022-08-21T03:57:43.776Z,64.24
2022-08-21T04:00:12.874Z,64.17
2022-08-21T04:02:40.570Z,63.86
2022-08-21T04:05:08.056Z,63.31
2022-08-21T04:07:35.252Z,62.94
2022-08-21T04:10:03.641Z,64.07
2022-08-21T04:12:31.322Z,63.46
2022-08-21T04:14:58.588Z,63.77
2022-08-21T04:17:26.329Z,64.49
2022-08-21T04:19:54.071Z,64.17
2022-08-21T04:22:21.315Z,62.77
2022-08-21T04:24:48.860Z,63.38
2022-08-21T04:27:16.030Z,63.99
2022-08-21T04:29:43.189Z,63.78
2022-08-21T04:32:10.668Z,63.53
2022-08-21T04:34:37.972Z,64.19
2022-08-21T04:37:05.220Z,63.31
2022-08-21T04:39:33.464Z,63.44
2022-08-21T04:42:00.655Z,63.38
2022-08-21T04:44:27.832Z,63.33
2022-08-21T04:46:55.326Z,62.91
2022-08-21T04:49:22.719Z,63.09
2022-08-21T04:51:49.894Z,63.20
2022-08-21T04:54:21.881Z,63.25
2022-08-21T04:56:49.087Z,62.95
2022-08-21T04:59:17.477Z,63.01
2022-08-21T05:01:44.700Z,62.31
2022-08-21T05:04:13.543Z,62.23
2022-08-21T05:06:42.026Z,62.56
2022-08-21T05:09:10.279Z,62.06
2022-08-21T05:11:38.107Z,62.50
2022-08-21T05:14:05.537Z,62.97
2022-08-21T05:16:37.587Z,61.80
2022-08-21T05:19:06.473Z,60.96
2022-08-21T05:21:39.151Z,61.79
2022-08-21T05:24:06.682Z,61.05
2022-08-21T05:26:33.839Z,62.57
2022-08-21T05:29:13.586Z,62.02
2022-08-21T05:31:40.798Z,61.83
2022-08-21T05:34:07.954Z,62.57
2022-08-21T05:36:35.463Z,62.73
2022-08-21T05:39:02.964Z,61.82
2022-08-21T05:41:30.143Z,61.98
2022-08-21T05:43:57.718Z,61.26
2022-08-21T05:46:24.919Z,60.17
2022-08-21T05:48:52.155Z,60.75
2022-08-21T05:51:19.874Z,61.40
2022-08-21T05:53:47.145Z,61.83
2022-08-21T05:56:14.453Z,61.17
2022-08-21T05:58:41.924Z,60.56
2022-08-21T06:01:10.036Z,60.80
2022-08-21T06:03:39.518Z,61.40
2022-08-21T06:06:07.092Z,60.96
2022-08-21T06:08:35.084Z,60.77
2022-08-21T06:11:03.013Z,60.83
2022-08-21T06:13:30.175Z,60.50
2022-08-21T06:16:08.416Z,59.92
2022-08-21T06:18:36.864Z,59.92
2022-08-21T06:21:05.402Z,60.65
2022-08-21T06:23:33.182Z,59.86
2022-08-21T06:26:05.635Z,60.51
2022-08-21T06:28:32.921Z,60.98
2022-08-21T06:31:00.463Z,59.48
2022-08-21T06:33:32.368Z,59.63
2022-08-21T06:36:01.079Z,59.90
2022-08-21T06:38:28.598Z,60.29
2022-08-21T06:40:56.139Z,59.82
2022-08-21T06:43:39.182Z,60.37
2022-08-21T06:46:08.684Z,59.38
2022-08-21T06:48:36.122Z,59.15
2022-08-21T06:51:03.817Z,58.08
2022-08-21T06:53:31.284Z,58.81
2022-08-21T06:55:58.541Z,58.76
2022-08-21T06:58:25.756Z,59.24
2022-08-21T07:00:57.529Z,57.88
2022-08-21T07:03:31.889Z,58.85
2022-08-21T07:05:59.403Z,57.49
2022-08-21T07:08:26.979Z,58.47
2022-08-21T07:10:54.843Z,57.56
2022-08-21T07:13:22.691Z,57.43
2022-08-21T07:15:49.863Z,57.36
2022-08-21T07:18:17.397Z,57.17
2022-08-21T07:20:44.934Z,58.00
2022-08-21T07:23:13.471Z,57.37
2022-08-21T07:25:40.674Z,56.28
2022-08-21T07:28:08.136Z,56.61
2022-08-21T07:30:35.353Z,57.00
2022-08-21T07:33:02.537Z,55.72
2022-08-21T07:35:30.176Z,57.06
2022-08-21T07:37:57.471Z,54.95
2022-08-21T07:40:31.104Z,54.47
2022-08-21T07:43:00.610Z,56.16
2022-08-21T07:45:27.975Z,55.70
2022-08-21T07:47:57.462Z,54.95
2022-08-21T07:50:25.352Z,54.68
2022-08-21T07:52:52.948Z,55.58
2022-08-21T07:55:20.658Z,55.50
2022-08-21T07:57:48.426Z,54.64
2022-08-21T08:00:17.023Z,55.43
2022-08-21T08:02:46.168Z,54.79
2022-08-21T08:05:13.594Z,55.68
2022-08-21T08:07:40.834Z,54.52
2022-08-21T08:10:11.507Z,54.68
2022-08-21T08:12:39.760Z,54.80
2022-08-21T08:15:08.251Z,54.36
2022-08-21T08:17:35.761Z,53.93
2022-08-21T08:20:03.520Z,53.65
2022-08-21T08:22:30.730Z,53.44
2022-08-21T08:24:58.188Z,52.20
2022-08-21T08:27:25.387Z,54.87
2022-08-21T08:29:52.571Z,53.01
2022-08-21T08:32:20.549Z,53.83
2022-08-21T08:34:49.678Z,54.07
2022-08-21T08:37:19.887Z,53.48
2022-08-21T08:39:50.562Z,52.82
2022-08-21T08:42:33.450Z,55.23
2022-08-21T08:45:03.694Z,54.10
2022-08-21T08:47:31.394Z,52.48
2022-08-21T08:50:07.949Z,52.24
2022-08-21T08:52:41.928Z,51.15
2022-08-21T08:55:09.738Z,51.92
2022-08-21T08:57:37.478Z,51.12
2022-08-21T09:00:11.170Z,52.04
2022-08-21T09:02:42.623Z,51.05
2022-08-21T09:05:13.238Z,52.64
2022-08-21T09:07:41.578Z,51.82
2022-08-21T09:10:14.741Z,50.91
2022-08-21T09:13:00.895Z,52.18
2022-08-21T09:15:48.460Z,54.21
2022-08-21T09:18:16.008Z,51.97
2022-08-21T09:21:01.567Z,51.55
2022-08-21T09:23:29.713Z,52.85
2022-08-21T09:26:05.920Z,51.17
2022-08-21T09:28:36.458Z,51.26
2022-08-21T09:31:04.629Z,50.62
2022-08-21T09:33:31.886Z,50.06
2022-08-21T09:35:59.335Z,50.12
2022-08-21T09:38:32.750Z,51.35
2022-08-21T09:41:02.003Z,49.36
2022-08-21T09:43:30.255Z,49.77
2022-08-21T09:46:06.800Z,49.92
2022-08-21T09:48:45.229Z,48.70
2022-08-21T09:51:22.937Z,49.52
2022-08-21T09:54:08.819Z,49.44
2022-08-21T09:56:56.056Z,53.43
2022-08-21T09:59:29.277Z,49.47
2022-08-21T10:01:58.455Z,50.93
2022-08-21T10:04:29.328Z,50.88
2022-08-21T10:07:06.485Z,51.52
2022-08-21T10:09:34.014Z,49.87
2022-08-21T10:12:21.471Z,50.79
2022-08-21T10:15:08.732Z,49.33
2022-08-21T10:17:44.427Z,49.80
2022-08-21T10:20:13.558Z,49.34
2022-08-21T10:22:40.720Z,48.74
2022-08-21T10:25:26.735Z,47.49
2022-08-21T10:28:21.368Z,46.56
2022-08-21T10:30:51.307Z,46.55
2022-08-21T10:33:25.419Z,47.57
2022-08-21T10:35:52.551Z,48.57
2022-08-21T10:38:46.233Z,49.79
2022-08-21T10:41:19.702Z,48.33
2022-08-21T10:43:51.906Z,47.97
2022-08-21T10:46:33.369Z,49.29
2022-08-21T10:49:06.950Z,47.71
2022-08-21T10:51:36.974Z,47.18
2022-08-21T10:54:23.664Z,46.35
2022-08-21T10:56:52.493Z,45.73
2022-08-21T10:59:27.714Z,45.78
2022-08-21T11:02:00.814Z,46.62
2022-08-21T11:04:49.598Z,44.80
2022-08-21T11:07:33.646Z,49.50
2022-08-21T11:10:12.103Z,49.02
2022-08-21T11:12:42.562Z,49.83
2022-08-21T11:15:29.086Z,48.09
2022-08-21T11:18:09.406Z,44.91
2022-08-21T11:20:55.468Z,45.07
2022-08-21T11:23:24.104Z,45.34
2022-08-21T11:25:56.395Z,49.53
2022-08-21T11:28:31.890Z,46.86
2022-08-21T11:31:03.812Z,46.57
2022-08-21T11:33:35.034Z,47.08
2022-08-21T11:36:09.982Z,48.32
2022-08-21T11:38:42.474Z,48.89
2022-08-21T11:41:12.977Z,48.33
2022-08-21T11:43:42.299Z,46.78
2022-08-21T11:46:18.811Z,47.01
2022-08-21T11:49:01.281Z,46.37
2022-08-21T11:51:32.405Z,48.64
2022-08-21T11:54:13.977Z,46.34
2022-08-21T11:56:43.393Z,46.58
2022-08-21T11:59:13.422Z,47.80
2022-08-21T12:01:43.237Z,46.78
2022-08-21T12:04:29.885Z,48.69
2022-08-21T12:06:57.657Z,48.24
2022-08-21T12:09:25.059Z,48.02
2022-08-21T12:12:01.074Z,49.41
2022-08-21T12:14:44.779Z,51.11
2022-08-21T12:17:22.146Z,50.74
2022-08-21T12:20:02.857Z,49.90
2022-08-21T12:22:39.690Z,50.69
2022-08-21T12:25:11.607Z,50.55
2022-08-21T12:27:45.565Z,50.46
2022-08-21T12:30:28.389Z,50.39
2022-08-21T12:32:57.513Z,50.60
2022-08-21T12:35:45.353Z,50.19
2022-08-21T12:38:16.867Z,51.13
2022-08-21T12:40:47.610Z,50.84
2022-08-21T12:43:17.193Z,50.26
2022-08-21T12:45:46.046Z,50.61
2022-08-21T12:48:25.201Z,51.83
2022-08-21T12:51:01.579Z,50.25
2022-08-21T12:53:33.307Z,50.67
2022-08-21T12:56:05.082Z,51.28
2022-08-21T12:58:32.476Z,52.39
2022-08-21T13:01:07.224Z,51.02
2022-08-21T13:03:36.573Z,52.28
2022-08-21T13:06:04.952Z,50.79
2022-08-21T13:08:34.531Z,52.57
2022-08-21T13:11:13.577Z,52.66
2022-08-21T13:13:46.960Z,51.85
2022-08-21T13:16:23.575Z,52.72
2022-08-21T13:18:55.977Z,51.78
2022-08-21T13:21:28.712Z,50.96
2022-08-21T13:23:55.955Z,51.53
2022-08-21T13:26:23.421Z,51.70
2022-08-21T13:28:51.356Z,52.15
2022-08-21T13:31:19.759Z,52.80
2022-08-21T13:33:47.211Z,53.52
2022-08-21T13:36:28.072Z,52.88
2022-08-21T13:38:55.839Z,52.52
2022-08-21T13:41:28.427Z,52.19
2022-08-21T13:44:00.824Z,54.26
2022-08-21T13:46:29.656Z,54.24
2022-08-21T13:48:57.253Z,55.13
2022-08-21T13:51:25.108Z,54.56
2022-08-21T13:53:54.018Z,53.75
2022-08-21T13:56:27.582Z,55.97
2022-08-21T13:58:55.460Z,56.52
2022-08-21T14:01:33.686Z,56.31
2022-08-21T14:04:05.784Z,57.75
2022-08-21T14:06:37.434Z,57.49
2022-08-21T14:09:09.411Z,56.97
2022-08-21T14:11:36.731Z,57.40
2022-08-21T14:14:05.511Z,56.83
2022-08-21T14:16:46.888Z,58.31
2022-08-21T14:19:24.421Z,57.96
2022-08-21T14:21:51.947Z,59.47
2022-08-21T14:24:25.244Z,59.87
2022-08-21T14:27:04.288Z,59.42
2022-08-21T14:29:41.962Z,59.17
2022-08-21T14:32:25.230Z,59.58
2022-08-21T14:34:54.944Z,59.96
2022-08-21T14:37:23.278Z,59.82
2022-08-21T14:39:50.748Z,59.40
2022-08-21T14:42:17.951Z,60.29
2022-08-21T14:44:45.386Z,58.61
2022-08-21T14:47:12.645Z,58.87
2022-08-21T14:49:40.783Z,59.36
2022-08-21T14:52:08.354Z,60.63
2022-08-21T14:54:35.571Z,59.00
2022-08-21T14:57:04.698Z,60.40
2022-08-21T14:59:34.031Z,60.47
2022-08-21T15:02:01.626Z,59.83
2022-08-21T15:04:28.805Z,60.73
2022-08-21T15:06:56.357Z,60.99
2022-08-21T15:09:25.698Z,60.75
2022-08-21T15:11:56.606Z,61.04
2022-08-21T15:14:25.707Z,59.94
2022-08-21T15:16:53.100Z,61.18
2022-08-21T15:19:20.478Z,60.91
2022-08-21T15:21:49.135Z,62.15
2022-08-21T15:24:16.849Z,60.02
2022-08-21T15:26:44.380Z,61.05
2022-08-21T15:29:12.795Z,61.37
2022-08-21T15:31:50.773Z,60.82
2022-08-21T15:34:18.605Z,59.82
2022-08-21T15:36:46.204Z,60.23
2022-08-21T15:39:13.611Z,61.54
2022-08-21T15:41:41.911Z,61.36
2022-08-21T15:44:12.711Z,61.74
2022-08-21T15:46:40.484Z,60.55
2022-08-21T15:49:08.766Z,61.66
2022-08-21T15:51:43.789Z,63.43
2022-08-21T15:54:11.771Z,61.42
2022-08-21T15:56:39.892Z,61.71
2022-08-21T15:59:13.671Z,62.24
2022-08-21T16:01:44.666Z,62.34
2022-08-21T16:04:26.172Z,62.68
2022-08-21T16:06:57.722Z,61.55
2022-08-21T16:09:29.497Z,61.71
2022-08-21T16:11:57.154Z,61.03
2022-08-21T16:14:24.954Z,61.76
2022-08-21T16:16:53.028Z,62.12
2022-08-21T16:19:21.747Z,62.24
2022-08-21T16:21:49.923Z,63.08
2022-08-21T16:24:17.417Z,62.43
2022-08-21T16:26:44.600Z,62.52
2022-08-21T16:29:11.863Z,63.61
2022-08-21T16:31:42.977Z,62.41
2022-08-21T16:34:10.237Z,63.19
2022-08-21T16:36:43.101Z,63.57
2022-08-21T16:39:10.528Z,62.72
2022-08-21T16:41:38.717Z,63.58
2022-08-21T16:44:07.273Z,63.69
2022-08-21T16:46:38.808Z,63.20
2022-08-21T16:49:06.293Z,63.53
2022-08-21T16:51:35.254Z,63.37
2022-08-21T16:54:03.972Z,63.71
2022-08-21T16:56:31.510Z,62.65
2022-08-21T16:58:59.334Z,62.47
2022-08-21T17:01:28.614Z,63.13
2022-08-21T17:03:56.453Z,62.54
2022-08-21T17:06:28.940Z,62.85
2022-08-21T17:08:57.271Z,62.49
2022-08-21T17:11:36.719Z,63.69
2022-08-21T17:14:09.909Z,64.04
2022-08-21T17:16:37.698Z,62.33
2022-08-21T17:19:06.379Z,63.18
2022-08-21T17:21:33.874Z,63.01
2022-08-21T17:24:01.102Z,63.59
2022-08-21T17:26:29.182Z,64.17
2022-08-21T17:28:59.302Z,64.93
2022-08-21T17:31:26.901Z,64.48
2022-08-21T17:33:58.710Z,63.00
2022-08-21T17:36:27.169Z,63.34
2022-08-21T17:38:54.703Z,63.65
2022-08-21T17:41:22.437Z,63.87
2022-08-21T17:43:51.696Z,64.02
2022-08-21T17:46:20.566Z,64.27
2022-08-21T17:48:47.934Z,64.38
2022-08-21T17:51:15.730Z,64.22
2022-08-21T17:53:45.038Z,64.32
2022-08-21T17:56:15.721Z,64.29
2022-08-21T17:58:44.780Z,63.97
2022-08-21T18:01:12.156Z,64.12
2022-08-21T18:03:39.777Z,64.10
2022-08-21T18:06:07.212Z,64.56
2022-08-21T18:08:35.722Z,65.10
2022-08-21T18:11:06.245Z,64.13
2022-08-21T18:13:38.386Z,63.95
2022-08-21T18:16:06.215Z,64.73
2022-08-21T18:18:36.472Z,64.79
2022-08-21T18:21:03.744Z,64.97
2022-08-21T18:23:43.816Z,64.50
2022-08-21T18:26:16.027Z,65.08
2022-08-21T18:28:44.376Z,65.32
2022-08-21T18:31:11.787Z,65.56
2022-08-21T18:33:39.352Z,64.30
2022-08-21T18:36:11.289Z,64.49
2022-08-21T18:38:42.673Z,63.81
2022-08-21T18:41:10.481Z,64.04
2022-08-21T18:43:38.909Z,64.14
2022-08-21T18:46:06.525Z,64.68
2022-08-21T18:48:35.505Z,64.23
2022-08-21T18:51:04.427Z,65.35
2022-08-21T18:53:36.417Z,65.01
2022-08-21T18:56:05.561Z,65.63
2022-08-21T18:58:33.940Z,65.39
2022-08-21T19:01:02.530Z,64.16
2022-08-21T19:03:33.317Z,64.37
2022-08-21T19:06:01.704Z,64.66
2022-08-21T19:08:35.996Z,64.53
2022-08-21T19:11:10.778Z,64.39
2022-08-21T19:13:39.210Z,64.49
2022-08-21T19:18:55.000Z,65.21
2022-08-21T19:21:26.947Z,65.11
2022-08-21T19:23:56.180Z,65.15
2022-08-21T19:26:26.090Z,65.58
2022-08-21T19:28:59.577Z,64.44
2022-08-21T19:31:32.470Z,64.79
2022-08-21T19:34:04.165Z,64.90
2022-08-21T19:36:32.857Z,64.85
2022-08-21T19:39:02.063Z,65.42
2022-08-21T19:41:42.686Z,65.22
2022-08-21T19:44:10.519Z,64.32
2022-08-21T19:46:44.037Z,64.25
2022-08-21T19:49:13.524Z,64.90
2022-08-21T19:51:42.962Z,64.94
2022-08-21T19:54:14.409Z,64.76
2022-08-21T19:56:48.541Z,66.13
2022-08-21T19:59:17.826Z,64.95
2022-08-21T20:01:47.210Z,64.71
2022-08-21T20:04:19.433Z,64.42
2022-08-21T20:06:54.492Z,64.20
2022-08-21T20:09:22.508Z,64.27
2022-08-21T20:11:51.738Z,64.85
2022-08-21T20:14:21.660Z,65.15
2022-08-21T20:19:41.238Z,65.28
2022-08-21T20:22:10.168Z,66.09
2022-08-21T20:24:38.323Z,65.24
2022-08-21T20:27:06.295Z,64.77
2022-08-21T20:29:38.953Z,64.91
2022-08-21T20:32:11.878Z,64.88
2022-08-21T20:34:40.822Z,65.97
2022-08-21T20:37:09.130Z,65.98
2022-08-21T20:39:37.312Z,66.21
2022-08-21T20:42:07.029Z,66.68
2022-08-21T20:44:34.512Z,66.89
2022-08-21T20:47:09.032Z,65.72
2022-08-21T20:49:42.148Z,66.02
2022-08-21T20:52:09.331Z,65.67
2022-08-21T20:54:44.262Z,65.72
2022-08-21T20:57:14.744Z,65.05
2022-08-21T20:59:47.786Z,64.78
2022-08-21T21:02:19.999Z,66.03
2022-08-21T21:05:08.020Z,64.96
2022-08-21T21:07:55.717Z,65.34
2022-08-21T21:10:33.350Z,64.98
2022-08-21T21:13:03.370Z,65.83
2022-08-21T21:15:31.920Z,64.93
2022-08-21T21:18:04.112Z,65.16
2022-08-21T21:20:37.532Z,66.09
2022-08-21T21:23:12.164Z,65.95
2022-08-21T21:25:42.797Z,66.74
2022-08-21T21:28:14.682Z,65.73
2022-08-21T21:30:46.452Z,65.29
2022-08-21T21:33:18.710Z,64.57
2022-08-21T21:35:54.991Z,66.02
2022-08-21T21:38:32.187Z,65.47
2022-08-21T21:41:29.269Z,65.58
2022-08-21T21:44:09.021Z,65.78
2022-08-21T21:46:55.810Z,66.14
2022-08-21T21:49:26.092Z,66.63
2022-08-21T21:52:01.239Z,67.10
2022-08-21T21:54:42.640Z,65.95
2022-08-21T21:57:19.307Z,66.88
2022-08-21T21:59:51.514Z,65.41
2022-08-21T22:02:34.216Z,66.19
2022-08-21T22:05:06.904Z,67.04
2022-08-21T22:07:46.374Z,67.83
2022-08-21T22:10:30.580Z,67.32
2022-08-21T22:13:26.516Z,65.23
2022-08-21T22:15:54.786Z,67.23
2022-08-21T22:18:23.283Z,67.37
2022-08-21T22:20:52.090Z,68.22
2022-08-21T22:23:21.249Z,65.97
2022-08-21T22:25:50.594Z,66.87
2022-08-21T22:28:22.326Z,67.20
2022-08-21T22:30:54.753Z,66.43
2022-08-21T22:33:26.343Z,66.26
2022-08-21T22:35:58.835Z,67.28
2022-08-21T22:38:26.030Z,68.13
2022-08-21T22:41:08.869Z,68.80
2022-08-21T22:43:36.753Z,66.55
2022-08-21T22:46:05.884Z,66.57
2022-08-21T22:48:38.148Z,65.92
2022-08-21T22:51:13.050Z,66.86
2022-08-21T22:53:41.548Z,66.41
2022-08-21T22:56:09.404Z,65.94
2022-08-21T22:58:37.516Z,65.80
2022-08-21T23:01:23.786Z,65.71
2022-08-21T23:03:52.150Z,65.09
2022-08-21T23:06:27.266Z,64.94
2022-08-21T23:08:54.675Z,65.55
2022-08-21T23:14:14.113Z,65.36
2022-08-21T23:16:47.572Z,65.90
2022-08-21T23:19:38.028Z,65.48
2022-08-21T23:22:14.889Z,65.38
2022-08-21T23:24:46.471Z,65.59
2022-08-21T23:27:23.282Z,65.19
2022-08-21T23:29:57.703Z,64.95
2022-08-21T23:32:35.674Z,65.13
2022-08-21T23:35:21.851Z,63.96
2022-08-21T23:37:53.816Z,65.51
2022-08-21T23:40:35.958Z,66.04
2022-08-21T23:43:03.751Z,65.12
2022-08-21T23:45:34.202Z,64.52
2022-08-21T23:48:21.603Z,65.17
2022-08-21T23:51:00.349Z,65.71
2022-08-21T23:53:28.362Z,65.40
2022-08-21T23:56:01.556Z,65.12
2022-08-21T23:58:32.474Z,64.55
